Time;durP1;ratioP1;P1;durP2;ratioP2;P2;SDS_P1;SDS_P2;PMS_P1;PMS_P2;Temp;Humidity;BMP_temperature;BMP_pressure;BME280_temperature;BME280_humidity;BME280_pressure;Samples;Min_cycle;Max_cycle;Signal;HPM_P1;HPM_P2
2022/02/02 00:01:57;;;;;;;0.00;0.00;;;;;21.10;100389.00;;;;5107931;28;20044;-74
2022/02/02 00:04:31;;;;;;;0.00;0.00;;;;;21.30;100375.00;;;;5106733;28;20114;-76
2022/02/02 00:07:17;;;;;;;0.00;0.00;;;;;21.20;100402.00;;;;5107994;28;20047;-76
2022/02/02 00:09:55;;;;;;;0.00;0.00;;;;;21.30;100381.00;;;;5107261;28;20637;-76
2022/02/02 00:12:50;;;;;;;0.00;0.00;;;;;21.20;100394.00;;;;5108170;28;21201;-76
2022/02/02 00:18:13;;;;;;;0.00;0.00;;;;;21.20;100393.00;;;;5109186;28;20109;-75
2022/02/02 00:20:54;;;;;;;0.00;0.00;;;;;21.20;100382.00;;;;5108003;28;20167;-75
2022/02/02 00:23:30;;;;;;;0.00;0.00;;;;;21.20;100416.00;;;;5107862;28;20096;-75
2022/02/02 00:26:09;;;;;;;0.00;0.00;;;;;21.20;100411.00;;;;5106955;28;20046;-76
2022/02/02 00:28:43;;;;;;;0.00;0.00;;;;;21.10;100406.00;;;;5107519;28;20051;-75
2022/02/02 00:31:20;;;;;;;0.00;0.00;;;;;20.90;100402.00;;;;5106208;28;20066;-76
2022/02/02 00:33:57;;;;;;;0.00;0.00;;;;;20.80;100411.00;;;;5108023;28;20054;-75
2022/02/02 00:36:34;;;;;;;0.00;0.00;;;;;20.90;100411.00;;;;5106051;28;20047;-75
2022/02/02 00:39:04;;;;;;;0.00;0.00;;;;;20.70;100410.00;;;;5107335;28;20160;-75
2022/02/02 00:41:34;;;;;;;0.00;0.00;;;;;20.70;100395.00;;;;5107560;28;20040;-75
2022/02/02 00:44:04;;;;;;;0.00;0.00;;;;;20.60;100402.00;;;;5107196;28;20047;-75
2022/02/02 00:46:33;;;;;;;0.00;0.00;;;;;20.50;100413.00;;;;5106644;28;20126;-76
2022/02/02 00:49:05;;;;;;;0.00;0.00;;;;;20.40;100408.00;;;;5106833;28;20090;-76
2022/02/02 00:54:06;;;;;;;;;;;;;20.10;100413.00;;;;5096995;28;20063;-75
2022/02/02 00:56:36;;;;;;;0.00;0.00;;;;;19.90;100394.00;;;;5092465;28;19923;-75
2022/02/02 00:59:06;;;;;;;0.00;0.00;;;;;19.80;100405.00;;;;5095790;28;20048;-74
2022/02/02 01:01:36;;;;;;;0.00;0.00;;;;;19.80;100420.00;;;;5093049;28;20062;-74
2022/02/02 01:04:05;;;;;;;0.00;0.00;;;;;19.70;100418.00;;;;5086692;28;20036;-74
2022/02/02 01:06:42;;;;;;;0.00;0.00;;;;;19.70;100413.00;;;;5074847;28;20091;-74
2022/02/02 01:09:22;;;;;;;0.00;0.00;;;;;19.60;100422.00;;;;5074820;28;20039;-74
2022/02/02 01:28:14;;;;;;;0.00;0.00;;;;;19.30;100416.00;;;;5081246;28;20054;-75
2022/02/02 01:30:44;;;;;;;0.00;0.00;;;;;19.30;100427.00;;;;5091239;28;20109;-75
2022/02/02 01:33:14;;;;;;;0.00;0.00;;;;;19.20;100445.00;;;;5084017;28;20105;-75
2022/02/02 01:35:43;;;;;;;0.00;0.00;;;;;19.20;100433.00;;;;5076642;28;20040;-74
2022/02/02 01:38:13;;;;;;;0.00;0.00;;;;;19.30;100415.00;;;;5084133;28;20059;-74
2022/02/02 01:40:51;;;;;;;0.00;0.00;;;;;19.30;100443.00;;;;5085225;28;20052;-75
2022/02/02 01:43:30;;;;;;;0.00;0.00;;;;;19.20;100424.00;;;;5085842;28;20082;-74
2022/02/02 01:46:07;;;;;;;0.00;0.00;;;;;19.20;100442.00;;;;5086186;28;20036;-75
2022/02/02 01:48:53;;;;;;;0.00;0.00;;;;;19.20;100441.00;;;;5086242;28;20052;-74
2022/02/02 01:54:01;;;;;;;0.00;0.00;;;;;19.20;100433.00;;;;5085850;28;20044;-75
2022/02/02 01:56:31;;;;;;;0.00;0.00;;;;;19.30;100442.00;;;;5086569;28;20050;-75
2022/02/02 01:59:03;;;;;;;0.00;0.00;;;;;19.30;100446.00;;;;5087429;28;20047;-75
2022/02/02 02:01:33;;;;;;;0.00;0.00;;;;;19.20;100448.00;;;;5090741;28;20040;-75
2022/02/02 02:04:03;;;;;;;0.00;0.00;;;;;19.10;100449.00;;;;5090702;28;20044;-74
2022/02/02 02:06:33;;;;;;;0.00;0.00;;;;;19.00;100445.00;;;;5090441;28;20139;-75
2022/02/02 02:09:02;;;;;;;0.00;0.00;;;;;19.00;100429.00;;;;5090287;28;20040;-74
2022/02/02 02:11:35;;;;;;;0.00;0.00;;;;;19.00;100429.00;;;;5090149;28;20133;-75
2022/02/02 02:16:41;;;;;;;0.00;0.00;;;;;18.90;100419.00;;;;5090165;28;20048;-74
2022/02/02 02:19:11;;;;;;;0.00;0.00;;;;;18.90;100442.00;;;;5090193;28;20048;-74
2022/02/02 02:21:43;;;;;;;0.00;0.00;;;;;18.80;100443.00;;;;5089603;28;20064;-74
2022/02/02 02:24:13;;;;;;;0.00;0.00;;;;;18.80;100439.00;;;;5090217;28;20047;-75
2022/02/02 02:26:43;;;;;;;0.00;0.00;;;;;18.80;100443.00;;;;5089683;28;20043;-74
2022/02/02 02:32:03;;;;;;;0.00;0.00;;;;;18.70;100427.00;;;;5090014;28;20165;-74
2022/02/02 02:34:56;;;;;;;0.00;0.00;;;;;18.70;100435.00;;;;5089830;28;20069;-75
2022/02/02 02:37:37;;;;;;;0.00;0.00;;;;;18.60;100432.00;;;;5090020;28;20105;-75
2022/02/02 02:57:17;;;;;;;0.00;0.00;;;;;19.00;100439.00;;;;5089173;28;20040;-74
2022/02/02 03:00:05;;;;;;;0.00;0.00;;;;;19.00;100441.00;;;;5089297;28;20419;-74
2022/02/02 03:50:14;;;;;;;0.00;0.00;;;;;18.20;100410.00;;;;5088024;28;20637;-75
2022/02/02 04:01:09;;;;;;;0.00;0.00;;;;;18.10;100407.00;;;;5088273;28;20047;-75
2022/02/02 04:06:09;;;;;;;0.00;0.00;;;;;18.10;100408.00;;;;5088246;28;20097;-74
2022/02/02 04:08:39;;;;;;;0.00;0.00;;;;;18.00;100412.00;;;;5087627;28;20054;-74
2022/02/02 04:11:17;;;;;;;0.00;0.00;;;;;18.00;100398.00;;;;5088041;28;20048;-75
2022/02/02 04:55:32;;;;;;;0.00;0.00;;;;;17.70;100391.00;;;;5087468;28;20043;-75
2022/02/02 05:01:23;;;;;;;0.00;0.00;;;;;17.60;100387.00;;;;5086489;28;20052;-75
2022/02/02 05:06:56;;;;;;;0.00;0.00;;;;;17.60;100384.00;;;;5087037;28;20061;-75
2022/02/02 05:17:37;;;;;;;0.00;0.00;;;;;17.60;100391.00;;;;5086828;28;20040;-74
2022/02/02 05:50:59;;;;;;;0.00;0.00;;;;;17.60;100381.00;;;;5085964;28;20054;-74
2022/02/02 05:53:29;;;;;;;0.00;0.00;;;;;17.60;100398.00;;;;5085837;28;20085;-75
2022/02/02 05:56:02;;;;;;;0.00;0.00;;;;;17.50;100378.00;;;;5086392;28;20036;-76
2022/02/02 05:58:37;;;;;;;0.00;0.00;;;;;17.50;100395.00;;;;5086233;28;20044;-76
2022/02/02 06:01:10;;;;;;;0.00;0.00;;;;;17.40;100374.00;;;;5086210;28;20051;-76
2022/02/02 06:03:52;;;;;;;0.00;0.00;;;;;17.40;100386.00;;;;5086779;28;20123;-76
2022/02/02 06:06:25;;;;;;;0.00;0.00;;;;;17.40;100386.00;;;;5085903;28;20097;-75
2022/02/02 06:08:55;;;;;;;0.00;0.00;;;;;17.50;100384.00;;;;5086438;28;20056;-74
2022/02/02 06:11:26;;;;;;;0.00;0.00;;;;;17.50;100383.00;;;;5086484;28;20301;-75
2022/02/02 06:13:58;;;;;;;0.00;0.00;;;;;17.50;100373.00;;;;5086281;28;20048;-75
2022/02/02 06:16:29;;;;;;;4.80;4.57;;;;;17.50;100391.00;;;;5085687;28;20048;-76
2022/02/02 06:19:01;;;;;;;0.00;0.00;;;;;17.60;100378.00;;;;5101259;28;20047;-75
2022/02/02 06:21:36;;;;;;;0.00;0.00;;;;;17.60;100392.00;;;;5086135;28;20040;-74
2022/02/02 06:24:09;;;;;;;0.00;0.00;;;;;17.50;100382.00;;;;5085617;28;20036;-76
2022/02/02 06:26:46;;;;;;;0.00;0.00;;;;;17.50;100390.00;;;;5086229;28;20562;-76
2022/02/02 06:29:17;;;;;;;0.00;0.00;;;;;17.40;100380.00;;;;5085565;28;20054;-75
2022/02/02 06:31:46;;;;;;;0.00;0.00;;;;;17.40;100381.00;;;;5086072;28;20044;-76
2022/02/02 06:34:22;;;;;;;0.00;0.00;;;;;17.30;100388.00;;;;5085714;28;20063;-75
2022/02/02 06:36:53;;;;;;;0.00;0.00;;;;;17.30;100379.00;;;;5086073;28;20040;-75
2022/02/02 06:39:26;;;;;;;0.00;0.00;;;;;17.30;100398.00;;;;5086067;28;20620;-76
2022/02/02 06:41:59;;;;;;;0.00;0.00;;;;;17.40;100382.00;;;;5085775;28;20048;-76
2022/02/02 06:44:29;;;;;;;0.00;0.00;;;;;17.40;100390.00;;;;5086055;28;20085;-75
2022/02/02 06:47:00;;;;;;;0.00;0.00;;;;;17.40;100380.00;;;;5089149;28;20044;-75
2022/02/02 06:49:29;;;;;;;0.00;0.00;;;;;17.40;100385.00;;;;5089919;28;20799;-74
2022/02/02 06:52:07;;;;;;;0.00;0.00;;;;;17.20;100388.00;;;;5089553;28;20642;-74
2022/02/02 06:55:19;;;;;;;0.00;0.00;;;;;17.20;100375.00;;;;5089247;28;20044;-74
2022/02/02 06:57:56;;;;;;;0.00;0.00;;;;;17.20;100377.00;;;;5089136;28;20055;-74
2022/02/02 07:03:21;;;;;;;0.00;0.00;;;;;17.20;100382.00;;;;5089344;28;20127;-76
2022/02/02 07:06:22;;;;;;;0.00;0.00;;;;;17.10;100382.00;;;;5088461;28;20510;-74
2022/02/02 07:09:08;;;;;;;0.00;0.00;;;;;17.10;100375.00;;;;5088964;28;20055;-74
2022/02/02 07:12:03;;;;;;;0.00;0.00;;;;;17.10;100371.00;;;;5088247;28;20035;-77
2022/02/02 07:20:21;;;;;;;0.00;0.00;;;;;17.10;100376.00;;;;5068879;28;19924;-75
2022/02/02 07:28:13;;;;;;;0.00;0.00;;;;;17.10;100356.00;;;;5088123;28;20044;-75
2022/02/02 07:31:40;;;;;;;0.00;0.00;;;;;17.00;100374.00;;;;5088690;28;20036;-75
2022/02/02 07:33:44;;;;;;;0.00;0.00;;;;;17.00;100369.00;;;;5080876;28;20074;-74
2022/02/02 07:36:26;;;;;;;0.00;0.00;;;;;16.90;100376.00;;;;5088827;28;20040;-74
2022/02/02 07:39:05;;;;;;;0.00;0.00;;;;;16.80;100374.00;;;;5088973;28;20384;-74
2022/02/02 07:41:38;;;;;;;0.00;0.00;;;;;16.80;100382.00;;;;5088622;28;20050;-74
2022/02/02 07:44:23;;;;;;;0.00;0.00;;;;;16.80;100383.00;;;;5086384;28;20072;-74
2022/02/02 07:46:55;;;;;;;0.00;0.00;;;;;16.80;100375.00;;;;5088935;28;20048;-74
2022/02/02 07:49:32;;;;;;;0.00;0.00;;;;;16.80;100375.00;;;;5088678;28;20044;-74
2022/02/02 07:52:04;;;;;;;0.00;0.00;;;;;16.70;100377.00;;;;5088431;28;20123;-74
2022/02/02 07:54:39;;;;;;;0.00;0.00;;;;;16.70;100371.00;;;;5088839;28;20044;-75
2022/02/02 07:57:26;;;;;;;0.00;0.00;;;;;16.80;100351.00;;;;5088627;28;20040;-74
2022/02/02 08:00:05;;;;;;;0.00;0.00;;;;;16.70;100370.00;;;;5088710;28;20518;-74
2022/02/02 08:05:36;;;;;;;0.00;0.00;;;;;16.50;100372.00;;;;5087492;28;20145;-75
2022/02/02 08:11:08;;;;;;;0.00;0.00;;;;;16.50;100387.00;;;;5075736;28;20047;-75
2022/02/02 08:13:44;;;;;;;0.00;0.00;;;;;16.50;100379.00;;;;5087938;28;20044;-74
2022/02/02 08:16:16;;;;;;;0.00;0.00;;;;;16.50;100389.00;;;;5088436;28;20044;-74
2022/02/02 08:18:50;;;;;;;0.00;0.00;;;;;16.50;100400.00;;;;5088061;28;20127;-74
2022/02/02 08:21:20;;;;;;;0.00;0.00;;;;;16.50;100388.00;;;;5087423;28;20514;-75
2022/02/02 08:23:51;;;;;;;0.00;0.00;;;;;16.40;100402.00;;;;5088637;28;20047;-75
2022/02/02 08:26:21;;;;;;;0.00;0.00;;;;;16.40;100386.00;;;;5087932;28;20063;-75
2022/02/02 08:28:57;;;;;;;0.00;0.00;;;;;16.40;100400.00;;;;5088164;28;20118;-75
2022/02/02 08:31:27;;;;;;;0.00;0.00;;;;;16.40;100395.00;;;;5087589;28;20040;-75
2022/02/02 08:34:00;;;;;;;0.00;0.00;;;;;16.40;100394.00;;;;5087246;28;20522;-75
2022/02/02 08:36:31;;;;;;;0.00;0.00;;;;;16.50;100404.00;;;;5087296;28;20048;-75
2022/02/02 08:42:01;;;;;;;0.00;0.00;;;;;16.40;100412.00;;;;5066109;28;20056;-75
2022/02/02 08:44:43;;;;;;;0.00;0.00;;;;;16.40;100429.00;;;;5087311;28;20048;-75
2022/02/02 08:47:17;;;;;;;0.00;0.00;;;;;16.40;100422.00;;;;5087855;28;20062;-75
2022/02/02 08:49:54;;;;;;;0.00;0.00;;;;;16.40;100417.00;;;;5087642;28;20597;-75
2022/02/02 08:52:34;;;;;;;0.00;0.00;;;;;16.40;100412.00;;;;5087243;28;20047;-76
2022/02/02 08:55:53;;;;;;;0.00;0.00;;;;;16.40;100435.00;;;;5087903;28;20132;-75
2022/02/02 08:58:25;;;;;;;0.00;0.00;;;;;16.40;100422.00;;;;5087208;28;20044;-76
2022/02/02 09:00:55;;;;;;;0.00;0.00;;;;;16.50;100426.00;;;;5085899;28;20353;-76
2022/02/02 09:06:15;;;;;;;0.00;0.00;;;;;16.50;100431.00;;;;5086773;28;20055;-77
2022/02/02 09:08:47;;;;;;;0.00;0.00;;;;;16.50;100438.00;;;;5086549;28;20130;-76
2022/02/02 09:25:44;;;;;;;0.00;0.00;;;;;16.80;100462.00;;;;5024738;28;20076;-75
2022/02/02 09:33:58;;;;;;;0.00;0.00;;;;;17.00;100475.00;;;;5087440;28;20093;-75
2022/02/02 09:36:31;;;;;;;0.00;0.00;;;;;17.20;100463.00;;;;5087031;28;20036;-76
2022/02/02 09:39:18;;;;;;;0.00;0.00;;;;;17.30;100471.00;;;;5086464;28;20040;-75
2022/02/02 09:41:51;;;;;;;0.00;0.00;;;;;17.30;100477.00;;;;5086595;28;20071;-75
2022/02/02 09:44:23;;;;;;;0.00;0.00;;;;;17.30;100451.00;;;;5086537;28;20040;-76
2022/02/02 09:47:08;;;;;;;0.00;0.00;;;;;17.50;100480.00;;;;5086521;28;20040;-76
2022/02/02 09:49:56;;;;;;;0.00;0.00;;;;;17.60;100474.00;;;;5086751;28;20048;-75
2022/02/02 09:52:33;;;;;;;0.00;0.00;;;;;17.80;100474.00;;;;5086501;28;20075;-76
2022/02/02 09:55:17;;;;;;;0.00;0.00;;;;;17.90;100461.00;;;;5086296;28;20035;-76
2022/02/02 09:58:17;;;;;;;0.00;0.00;;;;;18.10;100477.00;;;;5086538;28;20081;-76
2022/02/02 10:01:05;;;;;;;0.00;0.00;;;;;18.30;100471.00;;;;5086394;28;20534;-75
2022/02/02 10:06:27;;;;;;;0.00;0.00;;;;;19.60;100446.00;;;;5086979;28;20044;-76
2022/02/02 10:09:18;;;;;;;0.00;0.00;;;;;20.50;100429.00;;;;5085921;28;20575;-75
2022/02/02 10:12:05;;;;;;;0.00;0.00;;;;;20.20;100484.00;;;;5086253;28;20059;-76
2022/02/02 10:14:50;;;;;;;0.00;0.00;;;;;19.80;100497.00;;;;5087052;28;20048;-75
2022/02/02 10:17:30;;;;;;;0.00;0.00;;;;;19.80;100492.00;;;;5085863;28;20043;-76
2022/02/02 10:20:16;;;;;;;0.00;0.00;;;;;20.00;100500.00;;;;5087005;28;20040;-76
2022/02/02 10:22:48;;;;;;;0.00;0.00;;;;;20.20;100483.00;;;;5089034;28;20066;-76
2022/02/02 10:25:24;;;;;;;0.00;0.00;;;;;20.30;100495.00;;;;5089283;28;20063;-74
2022/02/02 10:28:11;;;;;;;0.00;0.00;;;;;20.30;100503.00;;;;5089646;28;20044;-74
2022/02/02 10:30:45;;;;;;;0.00;0.00;;;;;20.40;100512.00;;;;5089876;28;20075;-75
2022/02/02 10:33:20;;;;;;;0.00;0.00;;;;;20.70;100504.00;;;;5089553;28;20044;-77
2022/02/02 10:35:52;;;;;;;0.00;0.00;;;;;23.90;100330.00;;;;5092738;28;20097;-77
2022/02/02 10:38:31;;;;;;;0.00;0.00;;;;;29.10;100300.00;;;;5104439;28;20031;-75
2022/02/02 10:44:03;;;;;;;0.00;0.00;;;;;31.30;100283.00;;;;5071507;28;20050;-76
2022/02/02 10:46:39;;;;;;;0.00;0.00;;;;;32.50;100289.00;;;;5098528;28;20525;-77
2022/02/02 10:49:21;;;;;;;0.00;0.00;;;;;32.50;100287.00;;;;5109782;28;20108;-77
2022/02/02 10:52:41;;;;;;;0.08;0.08;;;;;33.20;100280.00;;;;5109532;28;20541;-76
2022/02/02 10:55:16;;;;;;;0.00;0.00;;;;;33.40;100307.00;;;;5104676;28;20075;-77
2022/02/02 11:01:05;;;;;;;0.00;0.00;;;;;26.90;100454.00;;;;5086783;28;20139;-75
2022/02/02 11:06:46;;;;;;;0.00;0.00;;;;;25.50;100413.00;;;;5108589;28;20111;-76
2022/02/02 11:09:19;;;;;;;0.00;0.00;;;;;31.10;100299.00;;;;5109347;28;20067;-76
2022/02/02 11:11:55;;;;;;;0.00;0.00;;;;;33.60;100289.00;;;;5109085;28;20028;-77
2022/02/02 11:14:34;;;;;;;0.00;0.00;;;;;33.90;100305.00;;;;5109006;28;20032;-76
2022/02/02 11:17:23;;;;;;;0.00;0.00;;;;;34.20;100304.00;;;;5104802;28;20063;-76
2022/02/02 11:20:02;;;;;;;0.00;0.00;;;;;34.70;100303.00;;;;5109548;28;20118;-77
2022/02/02 11:22:45;;;;;;;0.00;0.00;;;;;34.90;100299.00;;;;5108950;28;20126;-76
2022/02/02 11:25:15;;;;;;;0.00;0.00;;;;;34.80;100308.00;;;;5088913;28;20072;-76
2022/02/02 11:27:53;;;;;;;0.00;0.00;;;;;35.10;100296.00;;;;5088567;28;20123;-76
2022/02/02 11:30:27;;;;;;;0.00;0.00;;;;;35.30;100295.00;;;;5088777;28;20048;-77
2022/02/02 11:32:58;;;;;;;0.20;0.20;;;;;35.20;100292.00;;;;5088599;28;20040;-76
2022/02/02 11:38:30;;;;;;;0.15;0.15;;;;;34.70;100289.00;;;;5088749;28;20040;-75
2022/02/02 11:41:36;;;;;;;0.00;0.00;;;;;35.00;100295.00;;;;5088364;28;20081;-75
2022/02/02 11:47:12;;;;;;;0.00;0.00;;;;;35.00;100291.00;;;;5108751;28;20035;-76
2022/02/02 11:50:05;;;;;;;0.00;0.00;;;;;34.20;100283.00;;;;5106425;28;20114;-76
2022/02/02 11:52:50;;;;;;;0.00;0.00;;;;;34.20;100304.00;;;;5109001;28;20093;-78
2022/02/02 11:55:20;;;;;;;0.00;0.00;;;;;33.80;100307.00;;;;5108293;28;20134;-75
2022/02/02 11:58:12;;;;;;;0.15;0.15;;;;;33.10;100303.00;;;;5108459;27;20039;-75
2022/02/02 12:01:18;;;;;;;0.10;0.00;;;;;32.70;100312.00;;;;5108949;28;20085;-75
2022/02/02 12:03:57;;;;;;;0.10;0.10;;;;;32.30;100330.00;;;;5108026;28;20047;-76
2022/02/02 12:57:42;;;;;;;0.00;0.00;;;;;32.70;100456.00;;;;5107777;28;20494;-75
2022/02/02 13:00:21;;;;;;;0.68;0.40;;;;;33.30;100461.00;;;;5107661;28;20054;-76
2022/02/02 13:02:52;;;;;;;0.00;0.00;;;;;33.80;100447.00;;;;5107350;28;20079;-76
2022/02/02 13:05:24;;;;;;;0.00;0.00;;;;;33.60;100444.00;;;;5107588;28;20040;-76
2022/02/02 13:07:57;;;;;;;0.10;0.03;;;;;34.00;100446.00;;;;5107801;28;20054;-75
2022/02/02 13:10:29;;;;;;;0.00;0.00;;;;;33.70;100459.00;;;;5107131;28;20120;-75
2022/02/02 13:13:23;;;;;;;0.00;0.00;;;;;33.80;100445.00;;;;5106930;28;20043;-76
2022/02/02 13:16:14;;;;;;;0.10;0.10;;;;;34.20;100450.00;;;;5107805;28;20421;-75
2022/02/02 13:18:48;;;;;;;0.00;0.00;;;;;34.30;100456.00;;;;5108202;28;20051;-75
2022/02/02 13:21:30;;;;;;;0.10;0.10;;;;;34.20;100453.00;;;;5106564;28;20458;-75
2022/02/02 13:24:13;;;;;;;0.40;0.30;;;;;33.90;100447.00;;;;5107230;28;20458;-75
2022/02/02 13:27:00;;;;;;;0.10;0.10;;;;;33.90;100448.00;;;;5106254;28;20093;-76
2022/02/02 13:29:42;;;;;;;0.03;0.03;;;;;34.00;100462.00;;;;5107641;28;20043;-76
2022/02/02 13:32:17;;;;;;;0.00;0.00;;;;;33.90;100443.00;;;;5107120;28;20402;-77
2022/02/02 13:49:13;;;;;;;0.28;0.20;;;;;34.30;100455.00;;;;5106534;28;20063;-76
2022/02/02 13:52:08;;;;;;;0.00;0.00;;;;;34.20;100453.00;;;;5106999;28;20075;-77
2022/02/02 13:55:13;;;;;;;1.17;0.32;;;;;34.50;100445.00;;;;5109993;28;20425;-76
2022/02/02 13:58:16;;;;;;;0.20;0.10;;;;;34.40;100437.00;;;;5097734;28;20126;-76
2022/02/02 14:00:53;;;;;;;0.20;0.20;;;;;34.50;100442.00;;;;5100731;28;20043;-78
2022/02/02 14:31:24;;;;;;;0.68;0.10;;;;;35.60;100421.00;;;;5094460;28;20427;-77
2022/02/02 14:33:59;;;;;;;0.00;0.00;;;;;36.10;100416.00;;;;5089447;28;20049;-76
2022/02/02 14:36:34;;;;;;;0.00;0.00;;;;;36.00;100427.00;;;;5089355;28;20044;-77
2022/02/02 14:40:17;;;;;;;0.00;0.00;;;;;36.10;100417.00;;;;5089905;28;20044;-77
2022/02/02 14:42:12;;;;;;;0.00;0.00;;;;;36.60;100409.00;;;;5085902;28;20063;-78
2022/02/02 14:44:44;;;;;;;0.00;0.00;;;;;36.60;100415.00;;;;5089446;28;20052;-80
2022/02/02 14:47:34;;;;;;;0.15;0.15;;;;;36.10;100410.00;;;;5092356;28;20063;-77
2022/02/02 15:27:08;;;;;;;0.00;0.00;;;;;38.30;100370.00;;;;5088458;28;20048;-77
2022/02/02 15:29:02;;;;;;;0.00;0.00;;;;;38.20;100363.00;;;;5096877;28;20525;-76
2022/02/02 15:31:36;;;;;;;0.00;0.00;;;;;37.80;100356.00;;;;5097592;28;20059;-76
2022/02/02 15:34:33;;;;;;;0.00;0.00;;;;;37.80;100362.00;;;;5097688;28;20032;-77
2022/02/02 15:40:14;;;;;;;0.00;0.00;;;;;38.60;100363.00;;;;5098777;28;20144;-77
2022/02/02 15:43:07;;;;;;;0.13;0.13;;;;;38.30;100348.00;;;;5104127;28;20661;-76
2022/02/02 16:02:10;;;;;;;0.00;0.00;;;;;38.80;100408.00;;;;5088209;28;20089;-76
2022/02/02 16:04:41;;;;;;;0.00;0.00;;;;;37.80;100334.00;;;;5088638;28;20035;-74
2022/02/02 16:07:18;;;;;;;;;;;;;38.70;100337.00;;;;5088882;28;20055;-75
2022/02/02 16:09:54;;;;;;;0.03;0.03;;;;;38.80;100341.00;;;;5111266;27;20423;-78
2022/02/02 16:12:57;;;;;;;3.53;0.52;;;;;39.00;100325.00;;;;5096480;28;20127;-75
2022/02/02 16:15:28;;;;;;;0.00;0.00;;;;;39.40;100319.00;;;;5095928;28;20147;-75
2022/02/02 16:18:32;;;;;;;0.03;0.03;;;;;39.60;100322.00;;;;5104744;28;20182;-75
2022/02/02 16:35:45;;;;;;;0.20;0.00;;;;;39.30;100298.00;;;;5065900;28;20546;-77
2022/02/02 16:37:59;;;;;;;0.00;0.00;;;;;39.40;100298.00;;;;5091301;28;20126;-78
2022/02/02 16:40:34;;;;;;;0.00;0.00;;;;;39.30;100305.00;;;;5103467;28;20073;-75
2022/02/02 16:43:13;;;;;;;0.00;0.00;;;;;39.80;100291.00;;;;5107528;28;20511;-74
2022/02/02 16:45:52;;;;;;;0.00;0.00;;;;;40.30;100298.00;;;;5107974;28;20048;-75
2022/02/02 16:48:23;;;;;;;0.00;0.00;;;;;40.50;100296.00;;;;5104864;28;20134;-79
2022/02/02 16:50:55;;;;;;;0.10;0.10;;;;;40.30;100294.00;;;;5096667;28;20449;-78
2022/02/02 16:53:43;;;;;;;0.00;0.00;;;;;40.40;100290.00;;;;5093644;28;20040;-77
2022/02/02 17:32:46;;;;;;;0.00;0.00;;;;;39.20;100265.00;;;;5106416;28;20044;-77
2022/02/02 17:35:39;;;;;;;0.00;0.00;;;;;39.50;100251.00;;;;5106806;28;20054;-75
2022/02/02 18:00:48;;;;;;;0.00;0.00;;;;;41.00;100231.00;;;;5106779;28;20043;-76
2022/02/02 18:19:44;;;;;;;0.00;0.00;;;;;38.60;100233.00;;;;5106807;28;20032;-77
2022/02/02 18:22:16;;;;;;;0.00;0.00;;;;;38.80;100233.00;;;;5106655;28;20047;-77
2022/02/02 18:25:01;;;;;;;0.03;0.03;;;;;38.50;100235.00;;;;5106344;28;20040;-72
2022/02/02 18:27:43;;;;;;;0.00;0.00;;;;;38.40;100227.00;;;;5105691;28;20097;-76
2022/02/02 18:35:53;;;;;;;0.00;0.00;;;;;42.40;100203.00;;;;5090209;28;20082;-78
2022/02/02 18:58:20;;;;;;;;;;;;;;;;;;;;;
2022/02/02 19:31:58;;;;;;;0.00;0.00;;;;;42.60;100178.00;;;;5100452;28;20110;-77
2022/02/02 19:37:37;;;;;;;0.10;0.10;;;;;42.50;100182.00;;;;5097172;28;20043;-75
2022/02/02 19:56:49;;;;;;;0.00;0.00;;;;;35.50;100234.00;;;;5109236;28;20035;-76
2022/02/02 20:05:06;;;;;;;0.10;0.10;;;;;33.50;100216.00;;;;5068103;28;20053;-75
2022/02/02 20:12:40;;;;;;;0.00;0.00;;;;;33.90;100219.00;;;;5087970;28;20048;-75
2022/02/02 20:15:11;;;;;;;0.00;0.00;;;;;34.30;100208.00;;;;5070260;28;20052;-75
2022/02/02 20:17:43;;;;;;;0.00;0.00;;;;;35.10;100180.00;;;;5087909;28;20427;-77
2022/02/02 20:20:17;;;;;;;0.08;0.08;;;;;34.10;100218.00;;;;5088031;28;20397;-74
2022/02/02 20:22:47;;;;;;;0.00;0.00;;;;;32.60;100227.00;;;;5087848;28;20503;-77
2022/02/02 20:25:18;;;;;;;0.00;0.00;;;;;32.00;100218.00;;;;5087621;28;20117;-75
2022/02/02 20:28:03;;;;;;;0.00;0.00;;;;;31.40;100217.00;;;;5087430;28;20047;-78
2022/02/02 20:30:35;;;;;;;0.00;0.00;;;;;31.00;100226.00;;;;5088242;28;20498;-77
2022/02/02 20:33:06;;;;;;;0.00;0.00;;;;;30.80;100208.00;;;;5086864;28;20125;-78
2022/02/02 20:35:35;;;;;;;0.00;0.00;;;;;30.60;100225.00;;;;5087578;28;20079;-75
2022/02/02 20:38:05;;;;;;;0.00;0.00;;;;;30.60;100220.00;;;;5087168;28;20404;-76
2022/02/02 20:40:34;;;;;;;0.00;0.00;;;;;30.40;100214.00;;;;5086940;28;20068;-78
2022/02/02 20:43:13;;;;;;;0.00;0.00;;;;;30.30;100223.00;;;;5088101;28;20094;-75
2022/02/02 21:05:26;;;;;;;0.00;0.00;;;;;29.30;100224.00;;;;5086821;28;20081;-75
2022/02/02 21:10:34;;;;;;;0.00;0.00;;;;;29.00;100216.00;;;;5087068;28;20097;-75
2022/02/02 21:15:52;;;;;;;0.00;0.00;;;;;28.90;100230.00;;;;5087389;28;20075;-75
2022/02/02 21:18:30;;;;;;;0.00;0.00;;;;;28.70;100235.00;;;;5086882;28;20495;-75
2022/02/02 21:21:15;;;;;;;0.00;0.00;;;;;28.60;100233.00;;;;5087291;28;20036;-76
2022/02/02 21:24:19;;;;;;;0.00;0.00;;;;;28.50;100219.00;;;;5086878;28;20078;-76
2022/02/02 21:27:14;;;;;;;0.00;0.00;;;;;28.40;100213.00;;;;5086520;28;20047;-75
2022/02/02 21:29:39;;;;;;;0.10;0.10;;;;;28.20;100200.00;;;;5087335;28;20498;-76
2022/02/02 21:32:09;;;;;;;0.00;0.00;;;;;28.20;100205.00;;;;5086834;28;20048;-77
2022/02/02 21:34:39;;;;;;;0.00;0.00;;;;;28.10;100204.00;;;;5086537;28;20518;-76
2022/02/02 21:52:21;;;;;;;0.10;0.10;;;;;27.30;100225.00;;;;5124294;27;20435;-70
2022/02/02 21:54:43;;;;;;;0.00;0.00;;;;;27.20;100211.00;;;;5123247;28;20130;-73
2022/02/02 21:57:13;;;;;;;0.00;0.00;;;;;27.10;100222.00;;;;5124166;27;20055;-72
2022/02/02 21:59:45;;;;;;;0.00;0.00;;;;;27.00;100216.00;;;;5124023;27;20040;-72
2022/02/02 22:02:14;;;;;;;0.00;0.00;;;;;27.00;100213.00;;;;5125093;27;20039;-72
2022/02/02 22:04:44;;;;;;;0.00;0.00;;;;;26.90;100213.00;;;;5124396;27;20043;-71
2022/02/02 22:07:13;;;;;;;0.10;0.10;;;;;26.70;100217.00;;;;5123684;27;20565;-70
2022/02/02 22:09:45;;;;;;;0.00;0.00;;;;;26.70;100211.00;;;;5123235;27;20050;-71
2022/02/02 22:12:15;;;;;;;0.00;0.00;;;;;26.60;100215.00;;;;5124229;27;20144;-72
2022/02/02 22:14:46;;;;;;;0.10;0.10;;;;;26.50;100223.00;;;;5123976;27;20425;-71
2022/02/02 22:17:17;;;;;;;0.22;0.15;;;;;26.40;100221.00;;;;5123932;27;20050;-71
2022/02/02 22:19:51;;;;;;;0.00;0.00;;;;;26.30;100218.00;;;;5124086;27;20088;-71
2022/02/02 22:22:21;;;;;;;0.00;0.00;;;;;26.40;100236.00;;;;5123654;27;20557;-72
2022/02/02 22:24:51;;;;;;;0.00;0.00;;;;;26.30;100227.00;;;;5123921;27;20036;-72
2022/02/02 22:27:20;;;;;;;0.00;0.00;;;;;26.30;100235.00;;;;5124473;27;20039;-72
2022/02/02 22:29:49;;;;;;;0.00;0.00;;;;;26.20;100239.00;;;;5123858;27;20486;-72
2022/02/02 22:32:19;;;;;;;0.00;0.00;;;;;26.10;100224.00;;;;5123886;27;20054;-72
2022/02/02 22:34:49;;;;;;;0.00;0.00;;;;;26.00;100235.00;;;;5123771;27;20097;-72
2022/02/02 22:37:18;;;;;;;0.00;0.00;;;;;25.80;100239.00;;;;5123463;27;20043;-72
2022/02/02 22:39:50;;;;;;;0.00;0.00;;;;;25.70;100228.00;;;;5123529;27;20039;-72
2022/02/02 22:42:22;;;;;;;0.00;0.00;;;;;25.80;100217.00;;;;5123857;27;20051;-73
2022/02/02 22:44:55;;;;;;;0.00;0.00;;;;;25.80;100232.00;;;;5122875;28;20446;-72
2022/02/02 22:47:28;;;;;;;0.00;0.00;;;;;25.80;100238.00;;;;5123509;27;20049;-72
2022/02/02 22:49:59;;;;;;;0.00;0.00;;;;;25.70;100244.00;;;;5123359;27;20047;-70
2022/02/02 22:52:28;;;;;;;;;;;;;25.60;100262.00;;;;5111531;28;20128;-71
2022/02/02 22:54:57;;;;;;;0.00;0.00;;;;;25.50;100246.00;;;;5110032;28;19920;-70
2022/02/02 22:57:27;;;;;;;0.00;0.00;;;;;25.20;100246.00;;;;5109167;28;20044;-72
2022/02/02 22:59:57;;;;;;;0.00;0.00;;;;;25.10;100223.00;;;;5114124;27;20494;-72
2022/02/02 23:02:52;;;;;;;0.00;0.00;;;;;25.00;100249.00;;;;5117208;27;20031;-73
2022/02/02 23:05:29;;;;;;;0.00;0.00;;;;;25.00;100256.00;;;;5120764;27;20532;-71
2022/02/02 23:08:00;;;;;;;0.00;0.00;;;;;25.00;100249.00;;;;5115741;27;20101;-71
2022/02/02 23:10:30;;;;;;;0.00;0.00;;;;;24.90;100250.00;;;;5109042;28;20104;-71
2022/02/02 23:13:00;;;;;;;0.00;0.00;;;;;24.90;100244.00;;;;5088592;28;20043;-72
2022/02/02 23:18:17;;;;;;;0.00;0.00;;;;;24.80;100262.00;;;;5117651;27;20046;-73
2022/02/02 23:20:53;;;;;;;0.00;0.00;;;;;24.60;100248.00;;;;5116289;27;20049;-70
2022/02/02 23:23:26;;;;;;;0.00;0.00;;;;;24.60;100250.00;;;;5116478;27;20066;-72